createdAt,value
2022-10-24T00:00:06.017Z,17.50
2022-10-24T00:02:55.524Z,17.60
2022-10-24T00:05:48.770Z,17.40
2022-10-24T00:08:38.156Z,17.40
2022-10-24T00:11:28.961Z,17.50
2022-10-24T00:14:18.333Z,17.60
2022-10-24T00:17:08.957Z,17.80
2022-10-24T00:19:59.417Z,17.80
2022-10-24T00:22:49.791Z,17.70
2022-10-24T00:25:38.940Z,17.60
2022-10-24T00:28:28.176Z,17.70
2022-10-24T00:31:22.849Z,17.80
2022-10-24T00:34:15.774Z,17.90
2022-10-24T00:37:06.134Z,17.90
2022-10-24T00:39:56.932Z,17.90
2022-10-24T00:42:46.211Z,17.90
2022-10-24T00:45:48.153Z,18.00
2022-10-24T00:48:40.232Z,17.90
2022-10-24T00:51:32.790Z,18.00
2022-10-24T00:54:22.895Z,18.10
2022-10-24T00:57:21.742Z,18.10
2022-10-24T01:00:14.712Z,18.10
2022-10-24T01:03:04.924Z,18.00
2022-10-24T01:06:09.028Z,17.90
2022-10-24T01:09:09.301Z,18.00
2022-10-24T01:12:17.761Z,18.10
2022-10-24T01:15:17.915Z,18.20
2022-10-24T01:18:14.415Z,18.20
2022-10-24T01:21:10.509Z,18.20
2022-10-24T01:24:12.778Z,18.20
2022-10-24T01:27:31.938Z,18.20
2022-10-24T01:30:22.554Z,18.10
2022-10-24T01:33:20.911Z,18.10
2022-10-24T01:36:13.007Z,18.20
2022-10-24T01:39:04.324Z,18.20
2022-10-24T01:41:56.086Z,18.20
2022-10-24T01:44:50.791Z,18.20
2022-10-24T01:47:44.469Z,18.20
2022-10-24T01:50:36.464Z,18.20
2022-10-24T01:53:29.559Z,18.30
2022-10-24T01:56:19.059Z,18.30
2022-10-24T01:59:09.582Z,18.30
2022-10-24T02:02:11.847Z,18.20
2022-10-24T02:05:07.950Z,18.30
2022-10-24T02:07:59.665Z,18.10
2022-10-24T02:10:52.917Z,17.70
2022-10-24T02:13:46.827Z,17.80
2022-10-24T02:16:37.416Z,17.80
2022-10-24T02:19:38.022Z,17.60
2022-10-24T02:22:49.246Z,17.70
2022-10-24T02:25:41.590Z,17.80
2022-10-24T02:28:35.699Z,17.90
2022-10-24T02:31:30.963Z,18.00
2022-10-24T02:34:21.888Z,18.00
2022-10-24T02:37:13.361Z,18.00
2022-10-24T02:40:07.229Z,18.10
2022-10-24T02:42:59.235Z,18.10
2022-10-24T02:45:50.170Z,18.20
2022-10-24T02:48:45.308Z,18.20
2022-10-24T02:51:37.008Z,18.20
2022-10-24T02:54:26.137Z,18.20
2022-10-24T02:57:17.286Z,18.20
2022-10-24T03:00:07.865Z,18.20
2022-10-24T03:02:57.364Z,18.20
2022-10-24T03:05:46.276Z,18.20
2022-10-24T03:08:35.724Z,18.20
2022-10-24T03:11:25.543Z,18.10
2022-10-24T03:14:16.449Z,18.10
2022-10-24T03:17:05.220Z,18.10
2022-10-24T03:19:54.278Z,18.20
2022-10-24T03:22:43.711Z,18.20
2022-10-24T03:25:32.884Z,18.20
2022-10-24T03:28:22.488Z,18.20
2022-10-24T03:31:13.139Z,18.30
2022-10-24T03:34:02.694Z,18.20
2022-10-24T03:36:51.728Z,18.20
2022-10-24T03:39:40.910Z,18.20
2022-10-24T03:42:30.422Z,18.20
2022-10-24T03:45:19.586Z,18.30
2022-10-24T03:48:10.216Z,18.30
2022-10-24T03:50:59.776Z,18.30
2022-10-24T03:53:49.784Z,18.30
2022-10-24T03:56:38.820Z,18.30
2022-10-24T03:59:28.577Z,18.30
2022-10-24T04:02:18.232Z,18.30
2022-10-24T04:05:09.832Z,18.30
2022-10-24T04:07:59.423Z,18.30
2022-10-24T04:10:48.544Z,18.30
2022-10-24T04:13:38.292Z,18.30
2022-10-24T04:16:28.216Z,18.30
2022-10-24T04:19:18.866Z,18.20
2022-10-24T04:22:09.323Z,18.20
2022-10-24T04:24:59.047Z,18.30
2022-10-24T04:27:48.517Z,18.30
2022-10-24T04:30:37.731Z,18.20
2022-10-24T04:33:26.706Z,18.20
2022-10-24T04:36:16.218Z,18.20
2022-10-24T04:39:08.826Z,18.10
2022-10-24T04:41:58.684Z,18.20
2022-10-24T04:44:48.236Z,18.10
2022-10-24T04:47:38.264Z,18.10
2022-10-24T04:50:27.927Z,18.00
2022-10-24T04:53:17.993Z,17.90
2022-10-24T04:56:11.183Z,17.80
2022-10-24T04:59:03.578Z,17.80
2022-10-24T05:01:54.072Z,17.80
2022-10-24T05:04:42.873Z,17.80
2022-10-24T05:07:31.735Z,17.70
2022-10-24T05:10:22.263Z,17.80
2022-10-24T05:13:14.059Z,17.80
2022-10-24T05:16:04.003Z,17.80
2022-10-24T05:18:53.636Z,17.90
2022-10-24T05:21:43.056Z,17.90
2022-10-24T05:24:32.126Z,17.80
2022-10-24T05:27:24.786Z,17.80
2022-10-24T05:30:24.944Z,17.80
2022-10-24T05:33:16.265Z,17.70
2022-10-24T05:36:15.672Z,17.70
2022-10-24T05:39:05.322Z,17.70
2022-10-24T05:41:55.422Z,17.70
2022-10-24T05:44:44.818Z,17.70
2022-10-24T05:47:35.910Z,17.70
2022-10-24T05:50:27.012Z,17.70
2022-10-24T05:53:15.790Z,17.70
2022-10-24T05:56:06.194Z,17.70
2022-10-24T05:58:57.207Z,17.70
2022-10-24T06:01:48.153Z,17.80
2022-10-24T06:04:39.035Z,17.50
2022-10-24T06:07:28.207Z,17.70
2022-10-24T06:10:17.982Z,17.80
2022-10-24T06:13:07.699Z,17.80
2022-10-24T06:15:57.628Z,17.80
2022-10-24T06:18:47.458Z,17.80
2022-10-24T06:21:38.192Z,17.80
2022-10-24T06:24:27.217Z,17.80
2022-10-24T06:27:16.138Z,17.90
2022-10-24T06:30:05.863Z,17.90
2022-10-24T06:32:54.681Z,17.90
2022-10-24T06:35:43.646Z,17.80
2022-10-24T06:38:34.702Z,17.80
2022-10-24T06:41:23.806Z,17.90
2022-10-24T06:44:13.233Z,17.80
2022-10-24T06:47:01.981Z,17.90
2022-10-24T06:49:50.743Z,17.80
2022-10-24T06:52:40.471Z,17.70
2022-10-24T06:55:31.252Z,17.70
2022-10-24T06:58:20.876Z,17.80
2022-10-24T07:01:11.073Z,17.80
2022-10-24T07:04:00.092Z,17.80
2022-10-24T07:06:48.742Z,17.80
2022-10-24T07:09:38.322Z,17.70
2022-10-24T07:12:28.460Z,17.70
2022-10-24T07:15:17.508Z,17.90
2022-10-24T07:18:06.749Z,17.70
2022-10-24T07:20:55.764Z,17.80
2022-10-24T07:23:44.666Z,17.80
2022-10-24T07:26:34.094Z,17.70
2022-10-24T07:29:25.357Z,17.70
2022-10-24T07:32:14.835Z,17.80
2022-10-24T07:35:05.445Z,17.70
2022-10-24T07:37:55.349Z,17.80
2022-10-24T07:40:45.198Z,17.80
2022-10-24T07:43:35.341Z,17.70
2022-10-24T07:46:26.285Z,17.80
2022-10-24T07:49:15.615Z,17.80
2022-10-24T07:52:04.460Z,18.20
2022-10-24T07:54:55.580Z,17.80
2022-10-24T07:57:44.400Z,17.80
2022-10-24T08:00:35.084Z,17.80
2022-10-24T08:03:25.753Z,17.90
2022-10-24T08:06:17.308Z,18.10
2022-10-24T08:09:08.838Z,17.90
2022-10-24T08:11:58.062Z,17.90
2022-10-24T08:14:47.737Z,17.90
2022-10-24T08:17:38.244Z,17.90
2022-10-24T08:20:30.574Z,17.90
2022-10-24T08:23:24.645Z,17.90
2022-10-24T08:26:16.889Z,17.90
2022-10-24T08:29:10.985Z,17.90
2022-10-24T08:32:00.113Z,17.90
2022-10-24T08:34:49.862Z,17.90
2022-10-24T08:37:41.015Z,18.00
2022-10-24T08:40:30.758Z,18.10
2022-10-24T08:43:21.212Z,18.10
2022-10-24T08:46:25.021Z,18.20
2022-10-24T08:49:21.800Z,18.20
2022-10-24T08:52:20.599Z,18.30
2022-10-24T08:58:30.114Z,18.30
2022-10-24T09:01:29.507Z,18.30
2022-10-24T09:04:22.166Z,18.30
2022-10-24T09:07:19.391Z,18.40
2022-10-24T09:10:18.268Z,18.30
2022-10-24T09:13:14.742Z,18.20
2022-10-24T09:16:03.926Z,18.20
2022-10-24T09:18:55.927Z,18.20
2022-10-24T09:21:46.079Z,18.20
2022-10-24T09:24:40.931Z,18.20
2022-10-24T09:27:34.958Z,18.40
2022-10-24T09:30:30.103Z,18.30
2022-10-24T09:33:30.428Z,18.30
2022-10-24T09:36:21.051Z,18.30
2022-10-24T09:39:29.640Z,18.30
2022-10-24T09:42:24.128Z,18.30
2022-10-24T09:45:39.774Z,18.30
2022-10-24T09:48:32.940Z,18.30
2022-10-24T09:51:34.039Z,18.40
2022-10-24T09:54:28.608Z,18.40
2022-10-24T09:57:19.098Z,18.40
2022-10-24T10:00:22.443Z,18.40
2022-10-24T10:03:24.392Z,18.40
2022-10-24T10:06:18.962Z,18.40
2022-10-24T10:09:15.097Z,18.50
2022-10-24T10:12:04.439Z,18.50
2022-10-24T10:14:54.237Z,18.50
2022-10-24T10:17:51.965Z,18.60
2022-10-24T10:20:44.243Z,18.50
2022-10-24T10:23:36.374Z,18.60
2022-10-24T10:26:28.797Z,18.60
2022-10-24T10:29:25.233Z,18.60
2022-10-24T10:32:24.781Z,18.70
2022-10-24T10:35:21.866Z,18.70
2022-10-24T10:38:25.801Z,18.70
2022-10-24T10:41:40.703Z,18.70
2022-10-24T10:44:52.376Z,18.80
2022-10-24T10:47:52.906Z,18.70
2022-10-24T10:50:48.365Z,18.90
2022-10-24T10:53:44.324Z,18.90
2022-10-24T10:56:38.344Z,19.00
2022-10-24T11:05:34.754Z,19.40
2022-10-24T11:08:47.104Z,19.40
2022-10-24T11:11:41.001Z,20.00
2022-10-24T12:01:19.981Z,21.50
2022-10-24T12:04:41.316Z,21.70
2022-10-24T12:08:04.202Z,21.70
2022-10-24T12:11:11.860Z,21.80
2022-10-24T12:14:19.443Z,22.00
2022-10-24T12:17:50.499Z,22.30
2022-10-24T12:20:42.815Z,22.50
2022-10-24T12:23:33.721Z,22.60
2022-10-24T12:26:31.315Z,22.70
2022-10-24T12:29:25.570Z,22.70
2022-10-24T12:32:37.379Z,22.40
2022-10-24T12:35:59.400Z,22.10
2022-10-24T12:39:10.405Z,21.80
2022-10-24T12:41:59.530Z,21.50
2022-10-24T12:44:50.592Z,21.50
2022-10-24T12:47:40.953Z,21.80
2022-10-24T12:51:07.824Z,21.90
2022-10-24T12:54:06.130Z,21.80
2022-10-24T12:57:28.032Z,22.00
2022-10-24T13:00:25.401Z,22.40
2022-10-24T13:06:13.361Z,22.70
2022-10-24T13:09:29.919Z,22.60
2022-10-24T13:12:45.021Z,22.50
2022-10-24T13:15:45.143Z,22.70
2022-10-24T13:18:47.430Z,23.00
2022-10-24T13:21:46.952Z,23.00
2022-10-24T13:24:38.414Z,22.90
2022-10-24T13:27:33.172Z,22.60
2022-10-24T13:30:29.155Z,22.30
2022-10-24T13:33:53.802Z,22.00
2022-10-24T13:36:44.699Z,21.80
2022-10-24T13:39:40.316Z,21.90
2022-10-24T13:42:39.084Z,22.10
2022-10-24T13:45:35.869Z,22.30
2022-10-24T13:48:28.665Z,22.60
2022-10-24T13:51:25.462Z,22.80
2022-10-24T13:54:21.992Z,23.00
2022-10-24T13:57:35.728Z,23.00
2022-10-24T14:00:28.726Z,23.10
2022-10-24T14:03:22.083Z,23.10
2022-10-24T14:06:11.279Z,22.90
2022-10-24T14:09:09.718Z,22.70
2022-10-24T14:11:59.425Z,22.50
2022-10-24T14:14:51.311Z,22.20
2022-10-24T14:17:40.620Z,22.10
2022-10-24T14:20:33.707Z,21.90
2022-10-24T14:23:28.191Z,21.90
2022-10-24T14:26:20.647Z,21.90
2022-10-24T14:29:23.017Z,22.10
2022-10-24T14:32:17.121Z,22.20
2022-10-24T14:35:07.121Z,22.20
2022-10-24T14:37:57.078Z,22.00
2022-10-24T14:40:49.517Z,21.90
2022-10-24T14:43:45.532Z,21.70
2022-10-24T14:46:39.131Z,21.70
2022-10-24T14:49:34.016Z,21.70
2022-10-24T14:52:27.464Z,21.70
2022-10-24T14:55:22.422Z,21.80
2022-10-24T14:58:23.871Z,21.90
2022-10-24T15:01:19.517Z,21.90
2022-10-24T15:04:08.675Z,21.80
2022-10-24T15:06:58.715Z,22.00
2022-10-24T15:09:58.223Z,21.70
2022-10-24T15:12:55.655Z,21.60
2022-10-24T15:15:53.362Z,21.50
2022-10-24T15:18:44.584Z,21.50
2022-10-24T15:21:37.535Z,21.50
2022-10-24T15:55:55.969Z,21.10
2022-10-24T15:58:45.600Z,21.20
2022-10-24T16:01:38.553Z,20.90
2022-10-24T16:04:34.154Z,20.80
2022-10-24T16:07:23.284Z,20.70
2022-10-24T16:10:15.153Z,20.70
2022-10-24T16:13:04.552Z,20.70
2022-10-24T16:15:53.932Z,20.70
2022-10-24T16:18:43.346Z,20.70
2022-10-24T16:21:34.482Z,20.70
2022-10-24T16:24:23.293Z,20.50
2022-10-24T16:27:12.055Z,20.50
2022-10-24T16:35:42.269Z,20.60
2022-10-24T21:35:24.792Z,19.20
2022-10-24T21:38:13.656Z,19.20
2022-10-24T21:41:03.359Z,19.10
2022-10-24T21:43:53.558Z,19.00
2022-10-24T21:46:44.634Z,19.00
2022-10-24T21:49:33.527Z,19.00
2022-10-24T21:52:22.266Z,19.00
2022-10-24T21:55:11.904Z,19.00
2022-10-24T21:58:01.533Z,19.00
2022-10-24T22:00:51.031Z,19.00
2022-10-24T22:03:42.799Z,19.00
2022-10-24T22:06:33.411Z,19.00
2022-10-24T22:09:25.449Z,18.90
2022-10-24T22:12:14.486Z,18.90
2022-10-24T22:15:04.083Z,18.90
2022-10-24T22:17:53.476Z,18.90
2022-10-24T22:20:44.292Z,18.90
2022-10-24T22:23:33.673Z,18.90
2022-10-24T23:47:14.668Z,18.50
2022-10-24T23:50:12.674Z,18.60
2022-10-24T23:53:12.834Z,18.50
2022-10-24T23:56:02.839Z,18.50
2022-10-24T23:58:52.728Z,18.50
